sensor_id;sensor_type;location;lat;lon;timestamp;P1;durP1;ratioP1;P2;durP2;ratioP2
42742;SDS011;28397;44.552;-0.848;2023-06-22T00:00:57;17.10;;;5.90;;
42742;SDS011;28397;44.552;-0.848;2023-06-22T00:03:23;15.27;;;5.97;;
42742;SDS011;28397;44.552;-0.848;2023-06-22T00:05:50;12.45;;;5.80;;
42742;SDS011;28397;44.552;-0.848;2023-06-22T00:08:16;10.20;;;5.50;;
42742;SDS011;28397;44.552;-0.848;2023-06-22T00:10:43;11.88;;;5.72;;
42742;SDS011;28397;44.552;-0.848;2023-06-22T00:13:09;7.65;;;4.78;;
42742;SDS011;28397;44.552;-0.848;2023-06-22T00:15:36;11.02;;;5.13;;
42742;SDS011;28397;44.552;-0.848;2023-06-22T00:18:03;6.85;;;4.63;;
42742;SDS011;28397;44.552;-0.848;2023-06-22T00:20:29;6.82;;;4.68;;
42742;SDS011;28397;44.552;-0.848;2023-06-22T00:22:56;6.00;;;4.82;;
42742;SDS011;28397;44.552;-0.848;2023-06-22T00:25:22;6.38;;;4.35;;
42742;SDS011;28397;44.552;-0.848;2023-06-22T00:27:48;5.03;;;4.32;;
42742;SDS011;28397;44.552;-0.848;2023-06-22T00:30:17;7.40;;;4.28;;
42742;SDS011;28397;44.552;-0.848;2023-06-22T00:32:44;7.13;;;4.55;;
42742;SDS011;28397;44.552;-0.848;2023-06-22T00:35:11;7.97;;;4.57;;
42742;SDS011;28397;44.552;-0.848;2023-06-22T00:37:37;7.40;;;4.45;;
42742;SDS011;28397;44.552;-0.848;2023-06-22T00:40:06;4.72;;;4.10;;
42742;SDS011;28397;44.552;-0.848;2023-06-22T00:42:34;5.75;;;3.97;;
42742;SDS011;28397;44.552;-0.848;2023-06-22T00:44:59;6.25;;;4.00;;
42742;SDS011;28397;44.552;-0.848;2023-06-22T00:47:25;5.57;;;3.97;;
42742;SDS011;28397;44.552;-0.848;2023-06-22T00:49:52;5.25;;;3.92;;
42742;SDS011;28397;44.552;-0.848;2023-06-22T00:52:19;4.75;;;3.97;;
42742;SDS011;28397;44.552;-0.848;2023-06-22T00:54:47;6.28;;;4.32;;
42742;SDS011;28397;44.552;-0.848;2023-06-22T00:57:14;5.80;;;4.03;;
42742;SDS011;28397;44.552;-0.848;2023-06-22T00:59:43;4.53;;;4.00;;
42742;SDS011;28397;44.552;-0.848;2023-06-22T01:02:10;4.60;;;4.03;;
42742;SDS011;28397;44.552;-0.848;2023-06-22T01:04:37;5.80;;;4.00;;
42742;SDS011;28397;44.552;-0.848;2023-06-22T01:09:35;5.03;;;4.30;;
42742;SDS011;28397;44.552;-0.848;2023-06-22T01:12:08;6.15;;;4.47;;
42742;SDS011;28397;44.552;-0.848;2023-06-22T01:14:38;5.47;;;4.38;;
42742;SDS011;28397;44.552;-0.848;2023-06-22T01:17:15;5.40;;;4.25;;
42742;SDS011;28397;44.552;-0.848;2023-06-22T01:22:17;6.05;;;4.78;;
42742;SDS011;28397;44.552;-0.848;2023-06-22T01:27:36;5.68;;;4.72;;
42742;SDS011;28397;44.552;-0.848;2023-06-22T01:30:28;9.10;;;5.75;;
42742;SDS011;28397;44.552;-0.848;2023-06-22T01:32:56;5.85;;;5.13;;
42742;SDS011;28397;44.552;-0.848;2023-06-22T01:35:23;7.55;;;5.47;;
42742;SDS011;28397;44.552;-0.848;2023-06-22T01:37:50;6.53;;;4.97;;
42742;SDS011;28397;44.552;-0.848;2023-06-22T01:40:15;5.82;;;4.85;;
42742;SDS011;28397;44.552;-0.848;2023-06-22T01:42:43;6.55;;;5.05;;
42742;SDS011;28397;44.552;-0.848;2023-06-22T01:45:10;6.63;;;5.15;;
42742;SDS011;28397;44.552;-0.848;2023-06-22T01:47:37;7.38;;;5.40;;
42742;SDS011;28397;44.552;-0.848;2023-06-22T01:50:04;5.97;;;5.38;;
42742;SDS011;28397;44.552;-0.848;2023-06-22T01:52:30;6.85;;;5.15;;
42742;SDS011;28397;44.552;-0.848;2023-06-22T01:54:58;5.90;;;5.30;;
42742;SDS011;28397;44.552;-0.848;2023-06-22T01:57:25;5.63;;;5.00;;
42742;SDS011;28397;44.552;-0.848;2023-06-22T02:00:11;6.07;;;5.40;;
42742;SDS011;28397;44.552;-0.848;2023-06-22T02:02:47;5.95;;;4.85;;
42742;SDS011;28397;44.552;-0.848;2023-06-22T02:05:20;6.30;;;5.25;;
42742;SDS011;28397;44.552;-0.848;2023-06-22T02:10:53;7.05;;;5.35;;
42742;SDS011;28397;44.552;-0.848;2023-06-22T02:13:20;5.78;;;5.18;;
42742;SDS011;28397;44.552;-0.848;2023-06-22T02:15:46;6.35;;;5.15;;
42742;SDS011;28397;44.552;-0.848;2023-06-22T02:18:13;6.78;;;6.00;;
42742;SDS011;28397;44.552;-0.848;2023-06-22T02:20:39;7.68;;;5.63;;
42742;SDS011;28397;44.552;-0.848;2023-06-22T02:23:05;7.88;;;5.78;;
42742;SDS011;28397;44.552;-0.848;2023-06-22T02:25:32;7.22;;;5.93;;
42742;SDS011;28397;44.552;-0.848;2023-06-22T02:27:58;7.60;;;6.00;;
42742;SDS011;28397;44.552;-0.848;2023-06-22T02:30:24;6.50;;;5.68;;
42742;SDS011;28397;44.552;-0.848;2023-06-22T02:32:49;11.48;;;6.72;;
42742;SDS011;28397;44.552;-0.848;2023-06-22T02:37:56;10.80;;;6.40;;
42742;SDS011;28397;44.552;-0.848;2023-06-22T02:40:25;9.02;;;6.57;;
42742;SDS011;28397;44.552;-0.848;2023-06-22T02:42:50;8.45;;;6.25;;
42742;SDS011;28397;44.552;-0.848;2023-06-22T02:45:16;8.75;;;6.10;;
42742;SDS011;28397;44.552;-0.848;2023-06-22T02:47:42;9.00;;;6.95;;
42742;SDS011;28397;44.552;-0.848;2023-06-22T02:50:07;10.05;;;6.40;;
42742;SDS011;28397;44.552;-0.848;2023-06-22T02:52:33;7.95;;;6.07;;
42742;SDS011;28397;44.552;-0.848;2023-06-22T02:54:59;7.65;;;6.82;;
42742;SDS011;28397;44.552;-0.848;2023-06-22T02:57:25;11.45;;;7.00;;
42742;SDS011;28397;44.552;-0.848;2023-06-22T02:59:50;7.57;;;6.20;;
42742;SDS011;28397;44.552;-0.848;2023-06-22T03:02:16;8.88;;;6.88;;
42742;SDS011;28397;44.552;-0.848;2023-06-22T03:04:42;9.05;;;6.60;;
42742;SDS011;28397;44.552;-0.848;2023-06-22T03:07:08;7.53;;;6.72;;
42742;SDS011;28397;44.552;-0.848;2023-06-22T03:09:34;8.57;;;6.72;;
42742;SDS011;28397;44.552;-0.848;2023-06-22T03:12:00;7.70;;;6.72;;
42742;SDS011;28397;44.552;-0.848;2023-06-22T03:14:27;9.18;;;6.32;;
42742;SDS011;28397;44.552;-0.848;2023-06-22T03:16:52;12.00;;;6.93;;
42742;SDS011;28397;44.552;-0.848;2023-06-22T03:19:18;12.07;;;6.90;;
42742;SDS011;28397;44.552;-0.848;2023-06-22T03:21:45;8.13;;;6.53;;
42742;SDS011;28397;44.552;-0.848;2023-06-22T03:24:10;7.95;;;6.65;;
42742;SDS011;28397;44.552;-0.848;2023-06-22T03:26:36;8.00;;;6.85;;
42742;SDS011;28397;44.552;-0.848;2023-06-22T03:29:01;8.73;;;6.72;;
42742;SDS011;28397;44.552;-0.848;2023-06-22T03:31:28;9.52;;;6.82;;
42742;SDS011;28397;44.552;-0.848;2023-06-22T03:33:53;8.98;;;6.97;;
42742;SDS011;28397;44.552;-0.848;2023-06-22T03:36:19;8.93;;;6.82;;
42742;SDS011;28397;44.552;-0.848;2023-06-22T03:38:45;7.60;;;6.70;;
42742;SDS011;28397;44.552;-0.848;2023-06-22T03:41:12;8.63;;;7.25;;
42742;SDS011;28397;44.552;-0.848;2023-06-22T03:43:38;11.05;;;7.45;;
42742;SDS011;28397;44.552;-0.848;2023-06-22T03:46:04;8.88;;;7.18;;
42742;SDS011;28397;44.552;-0.848;2023-06-22T03:48:31;8.88;;;7.70;;
42742;SDS011;28397;44.552;-0.848;2023-06-22T03:50:59;9.45;;;8.32;;
42742;SDS011;28397;44.552;-0.848;2023-06-22T03:53:26;10.52;;;7.97;;
42742;SDS011;28397;44.552;-0.848;2023-06-22T03:55:52;9.05;;;7.70;;
42742;SDS011;28397;44.552;-0.848;2023-06-22T03:58:18;12.82;;;7.93;;
42742;SDS011;28397;44.552;-0.848;2023-06-22T04:00:49;9.55;;;7.82;;
42742;SDS011;28397;44.552;-0.848;2023-06-22T04:03:16;8.75;;;7.88;;
42742;SDS011;28397;44.552;-0.848;2023-06-22T04:05:43;9.98;;;7.80;;
42742;SDS011;28397;44.552;-0.848;2023-06-22T04:08:10;11.90;;;8.48;;
42742;SDS011;28397;44.552;-0.848;2023-06-22T04:10:37;9.70;;;8.30;;
42742;SDS011;28397;44.552;-0.848;2023-06-22T04:13:03;11.00;;;8.48;;
42742;SDS011;28397;44.552;-0.848;2023-06-22T04:15:29;10.95;;;7.72;;
42742;SDS011;28397;44.552;-0.848;2023-06-22T04:17:55;10.30;;;7.88;;
42742;SDS011;28397;44.552;-0.848;2023-06-22T04:20:21;10.75;;;8.45;;
42742;SDS011;28397;44.552;-0.848;2023-06-22T04:22:47;10.02;;;7.95;;
42742;SDS011;28397;44.552;-0.848;2023-06-22T04:25:13;13.85;;;7.97;;
42742;SDS011;28397;44.552;-0.848;2023-06-22T04:27:39;9.93;;;7.20;;
42742;SDS011;28397;44.552;-0.848;2023-06-22T04:30:06;10.45;;;7.70;;
42742;SDS011;28397;44.552;-0.848;2023-06-22T04:32:33;9.80;;;7.00;;
42742;SDS011;28397;44.552;-0.848;2023-06-22T04:35:01;8.75;;;6.88;;
42742;SDS011;28397;44.552;-0.848;2023-06-22T04:37:29;12.05;;;7.13;;
42742;SDS011;28397;44.552;-0.848;2023-06-22T04:39:55;9.82;;;6.72;;
42742;SDS011;28397;44.552;-0.848;2023-06-22T04:42:21;11.38;;;6.88;;
42742;SDS011;28397;44.552;-0.848;2023-06-22T04:44:46;14.73;;;7.40;;
42742;SDS011;28397;44.552;-0.848;2023-06-22T04:47:12;10.35;;;7.13;;
42742;SDS011;28397;44.552;-0.848;2023-06-22T04:49:38;12.57;;;6.70;;
42742;SDS011;28397;44.552;-0.848;2023-06-22T04:52:08;10.68;;;7.28;;
42742;SDS011;28397;44.552;-0.848;2023-06-22T04:54:35;12.00;;;7.13;;
42742;SDS011;28397;44.552;-0.848;2023-06-22T04:57:02;8.65;;;6.50;;
42742;SDS011;28397;44.552;-0.848;2023-06-22T04:59:31;12.88;;;6.75;;
42742;SDS011;28397;44.552;-0.848;2023-06-22T05:01:57;12.50;;;7.10;;
42742;SDS011;28397;44.552;-0.848;2023-06-22T05:04:25;11.30;;;6.88;;
42742;SDS011;28397;44.552;-0.848;2023-06-22T05:06:52;9.15;;;7.05;;
42742;SDS011;28397;44.552;-0.848;2023-06-22T05:09:19;12.70;;;7.40;;
42742;SDS011;28397;44.552;-0.848;2023-06-22T05:11:45;11.02;;;7.10;;
42742;SDS011;28397;44.552;-0.848;2023-06-22T05:14:10;14.82;;;8.18;;
42742;SDS011;28397;44.552;-0.848;2023-06-22T05:16:36;14.65;;;8.02;;
42742;SDS011;28397;44.552;-0.848;2023-06-22T05:19:03;13.85;;;8.07;;
42742;SDS011;28397;44.552;-0.848;2023-06-22T05:21:29;14.23;;;7.82;;
42742;SDS011;28397;44.552;-0.848;2023-06-22T05:23:56;13.90;;;8.20;;
42742;SDS011;28397;44.552;-0.848;2023-06-22T05:26:27;12.98;;;8.70;;
42742;SDS011;28397;44.552;-0.848;2023-06-22T05:28:53;15.27;;;7.88;;
42742;SDS011;28397;44.552;-0.848;2023-06-22T05:31:19;15.10;;;8.75;;
42742;SDS011;28397;44.552;-0.848;2023-06-22T05:33:45;15.00;;;8.15;;
42742;SDS011;28397;44.552;-0.848;2023-06-22T05:36:12;13.88;;;8.30;;
42742;SDS011;28397;44.552;-0.848;2023-06-22T05:38:38;15.30;;;8.90;;
42742;SDS011;28397;44.552;-0.848;2023-06-22T05:41:05;14.85;;;8.68;;
42742;SDS011;28397;44.552;-0.848;2023-06-22T05:43:31;15.40;;;8.85;;
42742;SDS011;28397;44.552;-0.848;2023-06-22T05:45:57;16.55;;;9.05;;
42742;SDS011;28397;44.552;-0.848;2023-06-22T05:48:23;14.15;;;8.10;;
42742;SDS011;28397;44.552;-0.848;2023-06-22T05:50:49;12.77;;;8.65;;
42742;SDS011;28397;44.552;-0.848;2023-06-22T05:53:14;14.05;;;7.85;;
42742;SDS011;28397;44.552;-0.848;2023-06-22T05:55:40;17.05;;;7.97;;
42742;SDS011;28397;44.552;-0.848;2023-06-22T05:58:06;13.70;;;8.18;;
42742;SDS011;28397;44.552;-0.848;2023-06-22T06:00:31;14.80;;;8.32;;
42742;SDS011;28397;44.552;-0.848;2023-06-22T06:02:57;14.52;;;8.45;;
42742;SDS011;28397;44.552;-0.848;2023-06-22T06:05:31;12.45;;;8.50;;
42742;SDS011;28397;44.552;-0.848;2023-06-22T06:07:59;15.55;;;9.45;;
42742;SDS011;28397;44.552;-0.848;2023-06-22T06:10:29;15.00;;;8.65;;
42742;SDS011;28397;44.552;-0.848;2023-06-22T06:12:55;13.82;;;9.07;;
42742;SDS011;28397;44.552;-0.848;2023-06-22T06:15:21;15.13;;;9.07;;
42742;SDS011;28397;44.552;-0.848;2023-06-22T06:17:48;16.92;;;9.30;;
42742;SDS011;28397;44.552;-0.848;2023-06-22T06:20:15;15.52;;;8.70;;
42742;SDS011;28397;44.552;-0.848;2023-06-22T06:22:43;14.70;;;9.23;;
42742;SDS011;28397;44.552;-0.848;2023-06-22T06:25:08;14.18;;;9.65;;
42742;SDS011;28397;44.552;-0.848;2023-06-22T06:27:34;15.18;;;10.43;;
42742;SDS011;28397;44.552;-0.848;2023-06-22T06:30:00;17.10;;;10.45;;
42742;SDS011;28397;44.552;-0.848;2023-06-22T06:32:25;13.77;;;10.32;;
42742;SDS011;28397;44.552;-0.848;2023-06-22T06:34:51;17.33;;;9.48;;
42742;SDS011;28397;44.552;-0.848;2023-06-22T06:37:17;12.13;;;8.05;;
42742;SDS011;28397;44.552;-0.848;2023-06-22T06:39:43;18.05;;;8.55;;
42742;SDS011;28397;44.552;-0.848;2023-06-22T06:42:09;11.90;;;7.60;;
42742;SDS011;28397;44.552;-0.848;2023-06-22T06:44:36;11.65;;;7.53;;
42742;SDS011;28397;44.552;-0.848;2023-06-22T06:47:03;13.13;;;7.43;;
42742;SDS011;28397;44.552;-0.848;2023-06-22T06:49:29;11.80;;;7.15;;
42742;SDS011;28397;44.552;-0.848;2023-06-22T06:51:55;11.88;;;7.45;;
42742;SDS011;28397;44.552;-0.848;2023-06-22T06:54:21;10.00;;;6.72;;
42742;SDS011;28397;44.552;-0.848;2023-06-22T06:56:47;11.20;;;6.53;;
42742;SDS011;28397;44.552;-0.848;2023-06-22T06:59:13;10.23;;;5.95;;
42742;SDS011;28397;44.552;-0.848;2023-06-22T07:01:40;8.82;;;5.70;;
42742;SDS011;28397;44.552;-0.848;2023-06-22T07:04:06;10.52;;;6.47;;
42742;SDS011;28397;44.552;-0.848;2023-06-22T07:06:32;9.90;;;5.95;;
42742;SDS011;28397;44.552;-0.848;2023-06-22T07:08:58;10.15;;;6.50;;
42742;SDS011;28397;44.552;-0.848;2023-06-22T07:11:24;7.20;;;5.45;;
42742;SDS011;28397;44.552;-0.848;2023-06-22T07:13:50;8.20;;;6.03;;
42742;SDS011;28397;44.552;-0.848;2023-06-22T07:16:16;6.82;;;5.40;;
42742;SDS011;28397;44.552;-0.848;2023-06-22T07:18:42;7.97;;;5.40;;
42742;SDS011;28397;44.552;-0.848;2023-06-22T07:21:07;7.10;;;5.53;;
42742;SDS011;28397;44.552;-0.848;2023-06-22T07:23:33;6.82;;;4.90;;
42742;SDS011;28397;44.552;-0.848;2023-06-22T07:26:00;6.63;;;4.80;;
42742;SDS011;28397;44.552;-0.848;2023-06-22T07:28:27;5.35;;;4.70;;
42742;SDS011;28397;44.552;-0.848;2023-06-22T07:30:56;7.05;;;4.47;;
42742;SDS011;28397;44.552;-0.848;2023-06-22T07:33:22;5.75;;;4.40;;
42742;SDS011;28397;44.552;-0.848;2023-06-22T07:35:47;6.93;;;4.80;;
42742;SDS011;28397;44.552;-0.848;2023-06-22T07:38:13;6.05;;;4.63;;
42742;SDS011;28397;44.552;-0.848;2023-06-22T07:40:40;6.85;;;4.50;;
42742;SDS011;28397;44.552;-0.848;2023-06-22T07:43:06;7.00;;;4.80;;
42742;SDS011;28397;44.552;-0.848;2023-06-22T07:45:32;6.35;;;4.70;;
42742;SDS011;28397;44.552;-0.848;2023-06-22T07:48:00;6.55;;;5.07;;
42742;SDS011;28397;44.552;-0.848;2023-06-22T07:50:26;6.60;;;5.03;;
42742;SDS011;28397;44.552;-0.848;2023-06-22T07:52:52;7.85;;;5.13;;
42742;SDS011;28397;44.552;-0.848;2023-06-22T07:55:18;7.50;;;5.10;;
42742;SDS011;28397;44.552;-0.848;2023-06-22T07:57:44;9.32;;;5.55;;
42742;SDS011;28397;44.552;-0.848;2023-06-22T08:00:12;8.68;;;5.43;;
42742;SDS011;28397;44.552;-0.848;2023-06-22T08:02:40;6.55;;;4.93;;
42742;SDS011;28397;44.552;-0.848;2023-06-22T08:05:07;7.72;;;5.38;;
42742;SDS011;28397;44.552;-0.848;2023-06-22T08:07:33;10.93;;;5.50;;
42742;SDS011;28397;44.552;-0.848;2023-06-22T08:10:03;7.32;;;5.18;;
42742;SDS011;28397;44.552;-0.848;2023-06-22T08:12:29;8.43;;;5.28;;
42742;SDS011;28397;44.552;-0.848;2023-06-22T08:14:55;9.23;;;5.60;;
42742;SDS011;28397;44.552;-0.848;2023-06-22T08:17:22;9.32;;;5.22;;
42742;SDS011;28397;44.552;-0.848;2023-06-22T08:19:48;8.57;;;5.43;;
42742;SDS011;28397;44.552;-0.848;2023-06-22T08:22:15;10.15;;;5.55;;
42742;SDS011;28397;44.552;-0.848;2023-06-22T08:24:42;9.45;;;5.85;;
42742;SDS011;28397;44.552;-0.848;2023-06-22T08:27:07;8.48;;;5.53;;
42742;SDS011;28397;44.552;-0.848;2023-06-22T08:29:35;9.75;;;6.20;;
42742;SDS011;28397;44.552;-0.848;2023-06-22T08:32:02;11.23;;;5.72;;
42742;SDS011;28397;44.552;-0.848;2023-06-22T08:34:28;9.85;;;5.75;;
42742;SDS011;28397;44.552;-0.848;2023-06-22T08:36:53;8.48;;;5.45;;
42742;SDS011;28397;44.552;-0.848;2023-06-22T08:39:19;10.50;;;5.80;;
42742;SDS011;28397;44.552;-0.848;2023-06-22T08:41:45;11.50;;;5.80;;
42742;SDS011;28397;44.552;-0.848;2023-06-22T08:44:15;9.57;;;5.78;;
42742;SDS011;28397;44.552;-0.848;2023-06-22T08:46:41;10.05;;;5.63;;
42742;SDS011;28397;44.552;-0.848;2023-06-22T08:49:07;10.90;;;5.53;;
42742;SDS011;28397;44.552;-0.848;2023-06-22T08:51:34;9.82;;;5.72;;
42742;SDS011;28397;44.552;-0.848;2023-06-22T08:54:00;9.65;;;6.28;;
42742;SDS011;28397;44.552;-0.848;2023-06-22T08:56:26;9.25;;;6.00;;
42742;SDS011;28397;44.552;-0.848;2023-06-22T08:58:52;8.50;;;6.05;;
42742;SDS011;28397;44.552;-0.848;2023-06-22T09:01:18;7.88;;;4.68;;
42742;SDS011;28397;44.552;-0.848;2023-06-22T09:03:43;9.10;;;4.82;;
42742;SDS011;28397;44.552;-0.848;2023-06-22T09:06:09;5.90;;;4.38;;
42742;SDS011;28397;44.552;-0.848;2023-06-22T09:08:35;8.63;;;4.60;;
42742;SDS011;28397;44.552;-0.848;2023-06-22T09:11:01;7.47;;;4.88;;
42742;SDS011;28397;44.552;-0.848;2023-06-22T09:13:29;6.60;;;4.70;;
42742;SDS011;28397;44.552;-0.848;2023-06-22T09:15:55;6.65;;;4.60;;
42742;SDS011;28397;44.552;-0.848;2023-06-22T09:18:21;7.20;;;4.45;;
42742;SDS011;28397;44.552;-0.848;2023-06-22T09:20:47;6.30;;;4.55;;
42742;SDS011;28397;44.552;-0.848;2023-06-22T09:23:13;7.68;;;4.88;;
42742;SDS011;28397;44.552;-0.848;2023-06-22T09:25:39;7.03;;;4.88;;
42742;SDS011;28397;44.552;-0.848;2023-06-22T09:28:06;9.18;;;5.88;;
42742;SDS011;28397;44.552;-0.848;2023-06-22T09:30:31;9.65;;;6.10;;
42742;SDS011;28397;44.552;-0.848;2023-06-22T09:32:57;9.05;;;5.47;;
42742;SDS011;28397;44.552;-0.848;2023-06-22T09:35:23;9.68;;;5.72;;
42742;SDS011;28397;44.552;-0.848;2023-06-22T09:37:48;10.50;;;6.05;;
42742;SDS011;28397;44.552;-0.848;2023-06-22T09:40:14;9.70;;;5.75;;
42742;SDS011;28397;44.552;-0.848;2023-06-22T09:42:41;10.25;;;6.70;;
42742;SDS011;28397;44.552;-0.848;2023-06-22T09:45:07;10.75;;;6.22;;
42742;SDS011;28397;44.552;-0.848;2023-06-22T09:47:33;9.15;;;6.47;;
42742;SDS011;28397;44.552;-0.848;2023-06-22T09:49:59;7.07;;;5.97;;
42742;SDS011;28397;44.552;-0.848;2023-06-22T09:52:25;8.48;;;6.35;;
42742;SDS011;28397;44.552;-0.848;2023-06-22T09:54:50;14.70;;;6.20;;
42742;SDS011;28397;44.552;-0.848;2023-06-22T09:57:16;8.60;;;5.97;;
42742;SDS011;28397;44.552;-0.848;2023-06-22T09:59:42;8.02;;;6.25;;
42742;SDS011;28397;44.552;-0.848;2023-06-22T10:02:08;10.50;;;5.82;;
42742;SDS011;28397;44.552;-0.848;2023-06-22T10:04:34;12.25;;;6.38;;
42742;SDS011;28397;44.552;-0.848;2023-06-22T10:07:00;8.07;;;5.70;;
42742;SDS011;28397;44.552;-0.848;2023-06-22T10:09:26;12.48;;;6.93;;
42742;SDS011;28397;44.552;-0.848;2023-06-22T10:11:52;9.90;;;6.57;;
42742;SDS011;28397;44.552;-0.848;2023-06-22T10:14:18;10.85;;;6.88;;
42742;SDS011;28397;44.552;-0.848;2023-06-22T10:16:44;12.38;;;6.93;;
42742;SDS011;28397;44.552;-0.848;2023-06-22T10:19:10;12.02;;;6.55;;
42742;SDS011;28397;44.552;-0.848;2023-06-22T10:21:35;11.02;;;7.55;;
42742;SDS011;28397;44.552;-0.848;2023-06-22T10:24:01;11.27;;;7.28;;
42742;SDS011;28397;44.552;-0.848;2023-06-22T10:26:31;10.88;;;7.30;;
42742;SDS011;28397;44.552;-0.848;2023-06-22T10:28:57;10.68;;;7.05;;
42742;SDS011;28397;44.552;-0.848;2023-06-22T10:31:23;10.00;;;7.30;;
42742;SDS011;28397;44.552;-0.848;2023-06-22T10:33:49;12.38;;;7.88;;
42742;SDS011;28397;44.552;-0.848;2023-06-22T10:36:15;13.02;;;7.68;;
42742;SDS011;28397;44.552;-0.848;2023-06-22T10:38:40;10.77;;;7.93;;
42742;SDS011;28397;44.552;-0.848;2023-06-22T10:41:06;11.02;;;7.13;;
42742;SDS011;28397;44.552;-0.848;2023-06-22T10:43:32;11.52;;;7.03;;
42742;SDS011;28397;44.552;-0.848;2023-06-22T10:45:57;11.65;;;7.72;;
42742;SDS011;28397;44.552;-0.848;2023-06-22T10:48:23;12.80;;;7.00;;
42742;SDS011;28397;44.552;-0.848;2023-06-22T10:50:49;11.00;;;7.18;;
42742;SDS011;28397;44.552;-0.848;2023-06-22T10:53:14;11.25;;;7.00;;
42742;SDS011;28397;44.552;-0.848;2023-06-22T10:55:40;12.27;;;6.97;;
42742;SDS011;28397;44.552;-0.848;2023-06-22T10:58:06;10.98;;;7.20;;
42742;SDS011;28397;44.552;-0.848;2023-06-22T11:00:31;11.93;;;7.05;;
42742;SDS011;28397;44.552;-0.848;2023-06-22T11:02:57;11.20;;;6.70;;
42742;SDS011;28397;44.552;-0.848;2023-06-22T11:05:23;9.05;;;6.90;;
42742;SDS011;28397;44.552;-0.848;2023-06-22T11:07:49;11.30;;;6.60;;
42742;SDS011;28397;44.552;-0.848;2023-06-22T11:10:15;11.13;;;7.03;;
42742;SDS011;28397;44.552;-0.848;2023-06-22T11:12:41;11.35;;;6.63;;
42742;SDS011;28397;44.552;-0.848;2023-06-22T11:15:08;9.40;;;6.53;;
42742;SDS011;28397;44.552;-0.848;2023-06-22T11:17:34;10.18;;;6.63;;
42742;SDS011;28397;44.552;-0.848;2023-06-22T11:20:00;10.82;;;6.55;;
42742;SDS011;28397;44.552;-0.848;2023-06-22T11:22:29;10.73;;;6.70;;
42742;SDS011;28397;44.552;-0.848;2023-06-22T11:24:58;11.52;;;7.10;;
42742;SDS011;28397;44.552;-0.848;2023-06-22T11:27:24;15.18;;;7.65;;
42742;SDS011;28397;44.552;-0.848;2023-06-22T11:29:49;11.02;;;7.18;;
42742;SDS011;28397;44.552;-0.848;2023-06-22T11:32:18;11.38;;;7.20;;
42742;SDS011;28397;44.552;-0.848;2023-06-22T11:34:44;10.50;;;7.20;;
42742;SDS011;28397;44.552;-0.848;2023-06-22T11:37:09;10.88;;;7.07;;
42742;SDS011;28397;44.552;-0.848;2023-06-22T11:39:35;12.80;;;7.00;;
42742;SDS011;28397;44.552;-0.848;2023-06-22T11:42:01;10.57;;;6.88;;
42742;SDS011;28397;44.552;-0.848;2023-06-22T11:44:26;11.45;;;7.10;;
42742;SDS011;28397;44.552;-0.848;2023-06-22T11:46:52;8.43;;;6.47;;
42742;SDS011;28397;44.552;-0.848;2023-06-22T11:49:18;9.60;;;6.85;;
42742;SDS011;28397;44.552;-0.848;2023-06-22T11:51:44;11.00;;;6.90;;
42742;SDS011;28397;44.552;-0.848;2023-06-22T11:54:09;10.35;;;7.10;;
42742;SDS011;28397;44.552;-0.848;2023-06-22T11:56:35;9.15;;;6.95;;
42742;SDS011;28397;44.552;-0.848;2023-06-22T11:59:01;11.20;;;7.25;;
42742;SDS011;28397;44.552;-0.848;2023-06-22T12:01:26;11.18;;;6.90;;
42742;SDS011;28397;44.552;-0.848;2023-06-22T12:03:52;8.00;;;6.60;;
42742;SDS011;28397;44.552;-0.848;2023-06-22T12:06:18;9.18;;;6.80;;
42742;SDS011;28397;44.552;-0.848;2023-06-22T12:08:43;11.57;;;7.18;;
42742;SDS011;28397;44.552;-0.848;2023-06-22T12:11:09;12.52;;;7.57;;
42742;SDS011;28397;44.552;-0.848;2023-06-22T12:13:35;12.10;;;7.45;;
42742;SDS011;28397;44.552;-0.848;2023-06-22T12:16:00;10.70;;;7.18;;
42742;SDS011;28397;44.552;-0.848;2023-06-22T12:18:26;12.75;;;7.72;;
42742;SDS011;28397;44.552;-0.848;2023-06-22T12:20:52;9.70;;;7.25;;
42742;SDS011;28397;44.552;-0.848;2023-06-22T12:23:17;10.65;;;7.03;;
42742;SDS011;28397;44.552;-0.848;2023-06-22T12:25:44;10.77;;;7.00;;
42742;SDS011;28397;44.552;-0.848;2023-06-22T12:28:10;12.85;;;6.95;;
42742;SDS011;28397;44.552;-0.848;2023-06-22T12:30:36;10.40;;;6.55;;
42742;SDS011;28397;44.552;-0.848;2023-06-22T12:33:02;10.73;;;7.28;;
42742;SDS011;28397;44.552;-0.848;2023-06-22T12:35:27;11.38;;;6.90;;
42742;SDS011;28397;44.552;-0.848;2023-06-22T12:37:53;10.02;;;6.70;;
42742;SDS011;28397;44.552;-0.848;2023-06-22T12:40:19;10.90;;;6.97;;
42742;SDS011;28397;44.552;-0.848;2023-06-22T12:42:45;13.20;;;7.22;;
42742;SDS011;28397;44.552;-0.848;2023-06-22T12:45:11;10.88;;;7.75;;
42742;SDS011;28397;44.552;-0.848;2023-06-22T12:47:36;12.45;;;7.10;;
42742;SDS011;28397;44.552;-0.848;2023-06-22T12:50:02;10.38;;;6.95;;
42742;SDS011;28397;44.552;-0.848;2023-06-22T12:52:29;10.82;;;7.13;;
42742;SDS011;28397;44.552;-0.848;2023-06-22T12:54:57;11.25;;;6.90;;
42742;SDS011;28397;44.552;-0.848;2023-06-22T12:57:22;10.20;;;6.60;;
42742;SDS011;28397;44.552;-0.848;2023-06-22T12:59:48;10.55;;;7.00;;
42742;SDS011;28397;44.552;-0.848;2023-06-22T13:02:14;9.98;;;6.70;;
42742;SDS011;28397;44.552;-0.848;2023-06-22T13:04:40;10.05;;;6.70;;
42742;SDS011;28397;44.552;-0.848;2023-06-22T13:07:05;10.57;;;7.07;;
42742;SDS011;28397;44.552;-0.848;2023-06-22T13:09:31;12.05;;;7.38;;
42742;SDS011;28397;44.552;-0.848;2023-06-22T13:11:57;12.70;;;7.13;;
42742;SDS011;28397;44.552;-0.848;2023-06-22T13:14:23;13.32;;;6.97;;
42742;SDS011;28397;44.552;-0.848;2023-06-22T13:16:49;11.63;;;7.00;;
42742;SDS011;28397;44.552;-0.848;2023-06-22T13:19:14;11.82;;;6.75;;
42742;SDS011;28397;44.552;-0.848;2023-06-22T13:21:41;12.27;;;6.93;;
42742;SDS011;28397;44.552;-0.848;2023-06-22T13:24:06;9.43;;;6.50;;
42742;SDS011;28397;44.552;-0.848;2023-06-22T13:26:32;10.60;;;6.75;;
42742;SDS011;28397;44.552;-0.848;2023-06-22T13:28:58;9.48;;;6.28;;
42742;SDS011;28397;44.552;-0.848;2023-06-22T13:31:24;10.43;;;6.43;;
42742;SDS011;28397;44.552;-0.848;2023-06-22T13:33:49;9.68;;;5.68;;
42742;SDS011;28397;44.552;-0.848;2023-06-22T13:36:17;11.75;;;5.88;;
42742;SDS011;28397;44.552;-0.848;2023-06-22T13:38:43;9.05;;;6.00;;
42742;SDS011;28397;44.552;-0.848;2023-06-22T13:41:08;10.43;;;5.90;;
42742;SDS011;28397;44.552;-0.848;2023-06-22T13:43:34;10.13;;;5.57;;
42742;SDS011;28397;44.552;-0.848;2023-06-22T13:46:00;8.82;;;5.93;;
42742;SDS011;28397;44.552;-0.848;2023-06-22T13:48:25;8.23;;;5.97;;
42742;SDS011;28397;44.552;-0.848;2023-06-22T13:50:53;11.93;;;6.20;;
42742;SDS011;28397;44.552;-0.848;2023-06-22T13:53:19;12.75;;;5.85;;
42742;SDS011;28397;44.552;-0.848;2023-06-22T13:55:45;10.40;;;5.60;;
42742;SDS011;28397;44.552;-0.848;2023-06-22T13:58:12;8.05;;;5.78;;
42742;SDS011;28397;44.552;-0.848;2023-06-22T14:00:38;11.35;;;6.30;;
42742;SDS011;28397;44.552;-0.848;2023-06-22T14:03:04;9.93;;;5.50;;
42742;SDS011;28397;44.552;-0.848;2023-06-22T14:05:29;10.10;;;5.45;;
42742;SDS011;28397;44.552;-0.848;2023-06-22T14:07:55;9.07;;;5.60;;
42742;SDS011;28397;44.552;-0.848;2023-06-22T14:10:21;10.07;;;5.40;;
42742;SDS011;28397;44.552;-0.848;2023-06-22T14:12:46;10.57;;;5.55;;
42742;SDS011;28397;44.552;-0.848;2023-06-22T14:15:12;10.98;;;5.93;;
42742;SDS011;28397;44.552;-0.848;2023-06-22T14:17:38;8.68;;;5.47;;
42742;SDS011;28397;44.552;-0.848;2023-06-22T14:20:03;10.93;;;5.22;;
42742;SDS011;28397;44.552;-0.848;2023-06-22T14:22:30;9.52;;;5.65;;
42742;SDS011;28397;44.552;-0.848;2023-06-22T14:24:56;10.98;;;5.38;;
42742;SDS011;28397;44.552;-0.848;2023-06-22T14:27:23;7.70;;;5.28;;
42742;SDS011;28397;44.552;-0.848;2023-06-22T14:29:49;11.52;;;5.07;;
42742;SDS011;28397;44.552;-0.848;2023-06-22T14:32:14;9.75;;;5.30;;
42742;SDS011;28397;44.552;-0.848;2023-06-22T14:34:40;8.32;;;5.28;;
42742;SDS011;28397;44.552;-0.848;2023-06-22T14:37:06;8.73;;;5.15;;